Dati Storici

Data ora Umidita' aria (%) Temperatura aria (°C) Rad globale (W/m²) Gonioanemometro (°) Tacoanemometro (m/s) Pioggia (mm)
29-06-2020 02:10 97.5 % 22.796 51.674 -0.024 0 0
29-06-2020 02:00 97.5 % 22.887 12.132 1.055 0 0
29-06-2020 01:50 97.5 % 22.947 13.623 0.815 0 0
29-06-2020 01:40 97.4 % 22.898 51.276 0.234 0 0
29-06-2020 01:30 95.1 % 23.011 36.665 1.206 0 0
29-06-2020 01:20 93.5 % 23.14 13.711 0.389 0 0
29-06-2020 01:10 91.5 % 23.337 17.26 -0.028 0 0
29-06-2020 01:00 91 % 23.589 333.078 1.076 0 0
29-06-2020 00:50 89.8 % 23.819 5.796 0.074 0 0
29-06-2020 00:40 87.7 % 24.219 249.364 -0.031 0 0
29-06-2020 00:30 85.2 % 24.372 8.593 -0.03 0 0
29-06-2020 00:20 82.8 % 24.592 14.685 -0.033 0 0
29-06-2020 00:10 81 % 24.718 9.985 0.756 0 0
29-06-2020 00:00 78.9 % 25.237 103.659 0.539 0 0
28-06-2020 23:50 78.1 % 25.158 28.574 -0.034 0 0
28-06-2020 23:40 76.4 % 25.305 62.93 -0.035 0 0
28-06-2020 23:30 74.1 % 25.676 86.837 -0.038 0 0
28-06-2020 23:20 71.7 % 26.198 208.293 -0.038 0 0
28-06-2020 23:10 74.3 % 25.962 282.113 -0.038 0 0
28-06-2020 23:00 73.6 % 26.078 336.126 -0.037 0 0

I dati sono presentati in modo automatico a scopo informativo. In seguito a verifica i dati possono subire modifiche o essere invalidati e non riportati negli archivi definitivi.